createdAt,value
2018-07-19T00:00:54.740Z,90.46
2018-07-19T00:01:54.759Z,90.37
2018-07-19T00:02:54.771Z,90.27
2018-07-19T00:03:54.788Z,90.56
2018-07-19T00:04:54.803Z,90.37
2018-07-19T00:05:54.825Z,90.17
2018-07-19T00:06:54.898Z,90.37
2018-07-19T00:07:54.891Z,90.37
2018-07-19T00:08:54.871Z,89.98
2018-07-19T00:09:54.894Z,90.46
2018-07-19T00:10:54.900Z,90.27
2018-07-19T00:11:54.926Z,90.37
2018-07-19T00:12:54.939Z,90.56
2018-07-19T00:13:54.952Z,90.27
2018-07-19T00:14:54.967Z,90.17
2018-07-19T00:15:55.042Z,90.17
2018-07-19T00:16:55.001Z,90.27
2018-07-19T00:17:55.020Z,90.17
2018-07-19T00:18:55.094Z,90.27
2018-07-19T00:19:55.053Z,90.17
2018-07-19T00:20:55.064Z,90.37
2018-07-19T00:21:55.092Z,90.37
2018-07-19T00:22:55.100Z,90.37
2018-07-19T00:23:55.116Z,90.08
2018-07-19T00:24:55.188Z,90.17
2018-07-19T00:25:55.152Z,90.08
2018-07-19T00:26:55.170Z,90.37
2018-07-19T00:27:55.180Z,90.08
2018-07-19T00:28:55.200Z,89.79
2018-07-19T00:29:55.215Z,90.37
2018-07-19T00:30:55.237Z,90.66
2018-07-19T00:31:55.247Z,89.79
2018-07-19T00:32:55.267Z,90.17
2018-07-19T00:33:55.383Z,90.17
2018-07-19T00:34:55.301Z,90.27
2018-07-19T00:35:55.311Z,90.08
2018-07-19T00:36:55.335Z,90.66
2018-07-19T00:37:55.353Z,90.37
2018-07-19T00:38:55.370Z,90.08
2018-07-19T00:39:55.450Z,90.37
2018-07-19T00:40:55.402Z,90.27
2018-07-19T00:41:55.414Z,90.08
2018-07-19T00:42:55.430Z,90.66
2018-07-19T00:43:55.446Z,90.66
2018-07-19T00:44:55.466Z,90.08
2018-07-19T00:45:55.479Z,90.37
2018-07-19T00:46:55.494Z,90.37
2018-07-19T00:47:55.505Z,90.08
2018-07-19T00:48:55.578Z,90.27
2018-07-19T00:49:55.543Z,90.08
2018-07-19T00:50:55.561Z,90.27
2018-07-19T00:51:55.578Z,90.17
2018-07-19T00:52:55.588Z,90.17
2018-07-19T00:53:55.615Z,90.08
2018-07-19T00:54:55.676Z,90.08
2018-07-19T00:55:55.664Z,90.56
2018-07-19T00:56:55.661Z,90.08
2018-07-19T00:57:55.672Z,90.08
2018-07-19T00:58:55.690Z,90.17
2018-07-19T00:59:55.708Z,90.17
2018-07-19T01:00:55.729Z,90.17
2018-07-19T01:01:55.736Z,90.37
2018-07-19T01:02:55.756Z,90.08
2018-07-19T01:03:55.779Z,90.08
2018-07-19T01:04:55.787Z,90.66
2018-07-19T01:05:55.808Z,90.37
2018-07-19T01:06:55.824Z,90.46
2018-07-19T01:07:55.831Z,90.37
2018-07-19T01:08:55.856Z,90.94
2018-07-19T01:09:55.864Z,90.66
2018-07-19T01:10:55.884Z,90.84
2018-07-19T01:11:55.899Z,90.56
2018-07-19T01:12:55.922Z,90.66
2018-07-19T01:13:55.938Z,90.56
2018-07-19T01:14:55.948Z,90.37
2018-07-19T01:15:55.968Z,90.56
2018-07-19T01:16:55.983Z,90.46
2018-07-19T01:17:56.001Z,90.37
2018-07-19T01:18:56.023Z,90.84
2018-07-19T01:19:56.029Z,90.56
2018-07-19T01:20:56.052Z,90.56
2018-07-19T01:21:56.063Z,90.37
2018-07-19T01:22:56.083Z,90.66
2018-07-19T01:23:56.107Z,90.37
2018-07-19T01:24:56.167Z,90.37
2018-07-19T01:25:56.134Z,90.66
2018-07-19T01:26:56.143Z,90.56
2018-07-19T01:27:56.244Z,90.56
2018-07-19T01:28:56.170Z,90.56
2018-07-19T01:29:56.195Z,90.56
2018-07-19T01:30:56.219Z,90.46
2018-07-19T01:31:56.231Z,90.66
2018-07-19T01:32:56.247Z,90.56
2018-07-19T01:33:56.266Z,90.46
2018-07-19T01:34:56.273Z,90.37
2018-07-19T01:35:56.289Z,90.56
2018-07-19T01:36:56.305Z,90.84
2018-07-19T01:37:56.324Z,90.37
2018-07-19T01:38:56.337Z,90.56
2018-07-19T01:39:56.359Z,90.37
2018-07-19T01:40:56.373Z,90.37
2018-07-19T01:41:56.389Z,90.37
2018-07-19T01:42:56.400Z,90.56
2018-07-19T01:43:56.416Z,90.37
2018-07-19T01:44:56.431Z,90.17
2018-07-19T01:45:56.459Z,90.42
2018-07-19T01:46:56.471Z,90.37
2018-07-19T01:47:56.482Z,90.27
2018-07-19T01:48:56.505Z,90.17
2018-07-19T01:49:56.520Z,90.32
2018-07-19T01:50:56.559Z,90.37
2018-07-19T01:51:56.549Z,90.22
2018-07-19T01:52:56.570Z,90.46
2018-07-19T01:53:56.581Z,90.27
2018-07-19T01:54:56.600Z,90.03
2018-07-19T01:55:56.619Z,90.32
2018-07-19T01:56:56.633Z,90.22
2018-07-19T01:57:56.651Z,90.46
2018-07-19T01:58:56.670Z,90.27
2018-07-19T01:59:56.731Z,91.09
2018-07-19T02:00:56.756Z,90.22
2018-07-19T02:01:56.719Z,90.03
2018-07-19T02:02:56.769Z,90.03
2018-07-19T02:03:56.752Z,90.22
2018-07-19T02:04:56.761Z,89.84
2018-07-19T02:05:56.777Z,90.22
2018-07-19T02:06:56.799Z,89.94
2018-07-19T02:07:56.814Z,90.61
2018-07-19T02:08:56.849Z,90.46
2018-07-19T02:09:56.851Z,90.27
2018-07-19T02:10:56.857Z,90.17
2018-07-19T02:11:56.878Z,90.42
2018-07-19T02:12:56.898Z,90.13
2018-07-19T02:13:56.916Z,90.42
2018-07-19T02:14:56.932Z,90.32
2018-07-19T02:15:56.942Z,90.32
2018-07-19T02:16:56.958Z,90.22
2018-07-19T02:17:56.980Z,90.17
2018-07-19T02:18:56.998Z,90.37
2018-07-19T02:19:57.013Z,90.32
2018-07-19T02:20:57.026Z,90.42
2018-07-19T02:21:57.048Z,90.03
2018-07-19T02:22:57.054Z,90.52
2018-07-19T02:23:57.081Z,90.13
2018-07-19T02:24:57.144Z,90.46
2018-07-19T02:25:57.116Z,90.42
2018-07-19T02:26:57.122Z,90.42
2018-07-19T02:27:57.138Z,90.32
2018-07-19T02:28:57.154Z,90.42
2018-07-19T02:29:57.185Z,90.22
2018-07-19T02:30:57.191Z,90.70
2018-07-19T02:31:57.204Z,90.22
2018-07-19T02:32:57.222Z,90.22
2018-07-19T02:33:57.241Z,90.22
2018-07-19T02:34:57.250Z,90.61
2018-07-19T02:35:57.267Z,89.94
2018-07-19T02:36:57.286Z,90.61
2018-07-19T02:37:57.298Z,90.22
2018-07-19T02:38:57.314Z,90.32
2018-07-19T02:39:57.340Z,90.46
2018-07-19T02:40:57.351Z,90.46
2018-07-19T02:41:57.372Z,90.08
2018-07-19T02:42:57.393Z,90.27
2018-07-19T02:43:57.488Z,90.13
2018-07-19T02:44:57.418Z,90.42
2018-07-19T02:45:57.436Z,90.22
2018-07-19T02:46:57.450Z,90.22
2018-07-19T02:47:57.467Z,89.84
2018-07-19T02:48:57.484Z,89.94
2018-07-19T02:49:57.512Z,90.22
2018-07-19T02:50:57.518Z,90.08
2018-07-19T02:51:57.542Z,90.37
2018-07-19T02:52:57.550Z,90.37
2018-07-19T02:53:57.568Z,90.37
2018-07-19T02:54:57.589Z,90.46
2018-07-19T02:55:57.599Z,90.37
2018-07-19T02:56:57.629Z,90.27
2018-07-19T02:57:57.646Z,90.66
2018-07-19T02:58:57.657Z,90.37
2018-07-19T02:59:57.665Z,90.37
2018-07-19T03:02:05.467Z,90.37
2018-07-19T03:02:57.742Z,90.66
2018-07-19T03:03:57.727Z,90.66
2018-07-19T03:04:57.741Z,90.66
2018-07-19T03:05:57.766Z,90.66
2018-07-19T03:06:57.775Z,90.37
2018-07-19T03:07:57.836Z,90.56
2018-07-19T03:08:57.833Z,90.66
2018-07-19T03:09:57.825Z,90.27
2018-07-19T03:10:57.846Z,90.66
2018-07-19T03:11:57.855Z,90.75
2018-07-19T03:12:57.871Z,90.61
2018-07-19T03:13:57.897Z,90.27
2018-07-19T03:14:57.939Z,90.46
2018-07-19T03:15:57.937Z,89.94
2018-07-19T03:16:57.944Z,90.37
2018-07-19T03:17:57.955Z,90.37
2018-07-19T03:18:57.971Z,90.27
2018-07-19T03:19:57.994Z,90.66
2018-07-19T03:20:58.033Z,90.61
2018-07-19T03:21:58.022Z,90.61
2018-07-19T03:22:58.035Z,90.42
2018-07-19T03:23:58.057Z,90.37
2018-07-19T03:24:58.071Z,90.42
2018-07-19T03:25:58.093Z,90.27
2018-07-19T03:26:58.103Z,90.46
2018-07-19T03:27:58.117Z,90.08
2018-07-19T03:28:58.138Z,90.37
2018-07-19T03:29:58.154Z,90.42
2018-07-19T03:30:58.190Z,90.17
2018-07-19T03:31:58.191Z,90.37
2018-07-19T03:32:58.206Z,89.94
2018-07-19T03:33:58.215Z,90.37
2018-07-19T03:34:58.237Z,90.37
2018-07-19T03:35:58.254Z,90.46
2018-07-19T03:36:58.269Z,90.37
2018-07-19T03:37:58.292Z,90.32
2018-07-19T03:38:58.316Z,90.61
2018-07-19T03:39:58.338Z,90.46
2018-07-19T03:40:58.329Z,90.27
2018-07-19T03:41:58.350Z,90.37
2018-07-19T03:42:58.369Z,90.37
2018-07-19T03:43:58.379Z,90.32
2018-07-19T03:44:58.436Z,90.22
2018-07-19T03:45:58.422Z,90.32
2018-07-19T03:46:58.428Z,90.03
2018-07-19T03:47:58.453Z,90.22
2018-07-19T03:48:58.470Z,90.42
2018-07-19T03:49:58.486Z,90.17
2018-07-19T03:50:58.496Z,90.27
2018-07-19T03:51:58.515Z,90.46
2018-07-19T03:52:58.534Z,90.37
2018-07-19T03:53:58.546Z,90.27
2018-07-19T03:54:58.563Z,90.27
2018-07-19T03:55:58.592Z,90.27
2018-07-19T03:56:58.594Z,90.66
2018-07-19T03:57:58.613Z,90.56
2018-07-19T03:58:58.633Z,90.56
2018-07-19T03:59:58.648Z,90.37
2018-07-19T04:00:58.667Z,90.46
2018-07-19T04:01:58.809Z,90.66
2018-07-19T04:02:58.693Z,90.46
2018-07-19T04:03:58.712Z,90.37
2018-07-19T04:04:58.734Z,90.08
2018-07-19T04:05:58.747Z,90.27
2018-07-19T04:06:58.772Z,90.46
2018-07-19T04:07:58.777Z,90.46
2018-07-19T04:08:58.795Z,90.08
2018-07-19T04:09:58.814Z,90.46
2018-07-19T04:10:58.832Z,90.27
2018-07-19T04:11:58.850Z,90.46
2018-07-19T04:12:58.875Z,90.37
2018-07-19T04:13:58.884Z,90.37
2018-07-19T04:14:58.892Z,90.56
2018-07-19T04:15:58.912Z,90.37
2018-07-19T04:16:58.974Z,90.46
2018-07-19T04:17:58.941Z,90.46
2018-07-19T04:18:59.001Z,90.27
2018-07-19T04:19:58.977Z,90.46
2018-07-19T04:20:58.991Z,90.66
2018-07-19T04:21:59.011Z,90.37
2018-07-19T04:22:59.024Z,90.37
2018-07-19T04:23:59.041Z,90.27
2018-07-19T04:24:59.093Z,89.98
2018-07-19T04:25:59.083Z,90.46
2018-07-19T04:26:59.089Z,90.27
2018-07-19T04:27:59.111Z,90.46
2018-07-19T04:28:59.120Z,90.46
2018-07-19T04:29:59.153Z,90.37
2018-07-19T04:30:59.237Z,90.27
2018-07-19T04:31:59.173Z,90.08
2018-07-19T04:32:59.195Z,90.08
2018-07-19T04:33:59.213Z,90.08
2018-07-19T04:34:59.227Z,90.27
2018-07-19T04:35:59.243Z,90.08
2018-07-19T04:36:59.318Z,90.66
2018-07-19T04:37:59.276Z,90.37
2018-07-19T04:38:59.296Z,90.46
2018-07-19T04:39:59.320Z,90.27
2018-07-19T04:40:59.338Z,90.66
2018-07-19T04:41:59.343Z,90.46
2018-07-19T04:42:59.437Z,90.37
2018-07-19T04:43:59.375Z,90.46
2018-07-19T04:44:59.389Z,90.66
2018-07-19T04:45:59.419Z,90.56
2018-07-19T04:46:59.428Z,90.08
2018-07-19T04:47:59.443Z,90.27
2018-07-19T04:48:59.517Z,90.27
2018-07-19T04:49:59.475Z,90.27
2018-07-19T04:50:59.488Z,90.27
2018-07-19T04:51:59.513Z,90.27
2018-07-19T04:52:59.522Z,90.56
2018-07-19T04:53:59.543Z,90.46
2018-07-19T04:54:59.602Z,90.37
2018-07-19T04:55:59.578Z,90.46
2018-07-19T04:56:59.596Z,90.08
2018-07-19T04:57:59.611Z,90.46
2018-07-19T04:58:59.624Z,90.27
2018-07-19T04:59:59.641Z,90.37
2018-07-19T05:00:59.661Z,90.37
2018-07-19T05:01:59.686Z,90.56
2018-07-19T05:02:59.685Z,90.27
2018-07-19T05:03:59.698Z,90.08
2018-07-19T05:04:59.724Z,90.08
2018-07-19T05:05:59.748Z,90.27
2018-07-19T05:06:59.764Z,90.08
2018-07-19T05:07:59.774Z,90.17
2018-07-19T05:08:59.789Z,90.17
2018-07-19T05:09:59.801Z,90.46
2018-07-19T05:10:59.821Z,90.17
2018-07-19T05:11:59.837Z,90.27
2018-07-19T05:12:59.919Z,90.08
2018-07-19T05:13:59.890Z,89.79
2018-07-19T05:14:59.885Z,90.41
2018-07-19T05:15:59.909Z,90.03
2018-07-19T05:16:59.915Z,90.31
2018-07-19T05:17:59.939Z,90.03
2018-07-19T05:18:59.953Z,90.22
2018-07-19T05:19:59.970Z,90.31
2018-07-19T05:20:59.997Z,90.31
2018-07-19T05:22:00.001Z,90.22
2018-07-19T05:23:00.021Z,90.12
2018-07-19T05:24:00.037Z,90.22
2018-07-19T05:25:00.098Z,90.22
2018-07-19T05:26:00.072Z,90.51
2018-07-19T05:27:00.087Z,90.03
2018-07-19T05:28:00.113Z,89.93
2018-07-19T05:29:00.122Z,90.31
2018-07-19T05:30:00.140Z,90.12
2018-07-19T05:31:00.215Z,90.22
2018-07-19T05:32:00.177Z,90.03
2018-07-19T05:33:00.191Z,90.22
2018-07-19T05:34:00.210Z,89.74
2018-07-19T05:35:00.229Z,89.64
2018-07-19T05:36:00.254Z,89.83
2018-07-19T05:37:00.275Z,89.54
2018-07-19T05:38:00.270Z,89.93
2018-07-19T05:39:00.295Z,89.64
2018-07-19T05:40:00.302Z,89.83
2018-07-19T05:41:00.319Z,90.41
2018-07-19T05:42:00.338Z,89.93
2018-07-19T05:43:00.351Z,90.03
2018-07-19T05:44:00.369Z,89.64
2018-07-19T05:45:00.393Z,89.93
2018-07-19T05:46:00.409Z,90.31
2018-07-19T05:47:00.426Z,90.41
2018-07-19T05:48:00.439Z,89.93
2018-07-19T05:49:00.452Z,89.93
2018-07-19T05:50:00.510Z,89.45
2018-07-19T05:51:00.491Z,90.03
2018-07-19T05:52:00.510Z,90.12
2018-07-19T05:53:00.521Z,89.64
2018-07-19T05:54:00.536Z,89.36
2018-07-19T05:55:00.558Z,89.88
2018-07-19T05:56:00.573Z,89.88
2018-07-19T05:57:00.583Z,89.59
2018-07-19T05:58:00.610Z,89.59
2018-07-19T05:59:00.633Z,88.92
2018-07-19T06:00:00.639Z,89.40
2018-07-19T06:01:00.662Z,88.82
2018-07-19T06:02:00.673Z,89.01
2018-07-19T06:03:00.687Z,89.01
2018-07-19T06:04:00.710Z,88.63
2018-07-19T06:05:00.719Z,89.40
2018-07-19T06:06:00.740Z,89.50
2018-07-19T06:07:00.751Z,89.01
2018-07-19T06:08:00.772Z,89.01
2018-07-19T06:09:00.785Z,89.21
2018-07-19T06:10:00.810Z,89.21
2018-07-19T06:11:00.822Z,89.01
2018-07-19T06:12:00.832Z,89.01
2018-07-19T06:13:00.855Z,89.01
2018-07-19T06:14:00.871Z,88.82
2018-07-19T06:15:00.889Z,88.63
2018-07-19T06:16:00.919Z,88.63
2018-07-19T06:17:00.915Z,88.63
2018-07-19T06:18:00.943Z,88.82
2018-07-19T06:19:00.956Z,89.01
2018-07-19T06:20:00.972Z,88.73
2018-07-19T06:21:00.984Z,88.82
2018-07-19T06:22:01.006Z,88.82
2018-07-19T06:23:01.020Z,89.21
2018-07-19T06:24:01.036Z,89.21
2018-07-19T06:25:01.069Z,88.92
2018-07-19T06:26:01.072Z,89.01
2018-07-19T06:27:01.091Z,89.01
2018-07-19T06:28:01.106Z,89.21
2018-07-19T06:29:01.127Z,88.82
2018-07-19T06:30:01.147Z,88.82
2018-07-19T06:31:01.156Z,89.01
2018-07-19T06:32:01.168Z,89.01
2018-07-19T06:33:01.188Z,88.96
2018-07-19T06:34:01.207Z,89.25
2018-07-19T06:35:01.220Z,89.15
2018-07-19T06:36:01.240Z,88.73
2018-07-19T06:37:01.251Z,89.15
2018-07-19T06:38:01.266Z,89.30
2018-07-19T06:39:01.291Z,89.11
2018-07-19T06:40:01.308Z,89.25
2018-07-19T06:41:01.325Z,89.06
2018-07-19T06:42:01.347Z,88.96
2018-07-19T06:43:01.383Z,89.35
2018-07-19T06:44:01.375Z,88.67
2018-07-19T06:45:01.388Z,88.33
2018-07-19T06:46:01.412Z,89.15
2018-07-19T06:47:01.424Z,88.24
2018-07-19T06:48:01.440Z,88.53
2018-07-19T06:49:01.485Z,88.43
2018-07-19T06:50:01.477Z,88.43
2018-07-19T06:51:01.492Z,88.39
2018-07-19T06:52:01.511Z,88.53
2018-07-19T06:53:01.525Z,88.24
2018-07-19T06:54:01.546Z,88.62
2018-07-19T06:55:01.561Z,87.60
2018-07-19T06:56:01.579Z,87.60
2018-07-19T06:57:01.596Z,88.62
2018-07-19T06:58:01.620Z,87.51
2018-07-19T06:59:01.636Z,88.28
2018-07-19T07:00:01.651Z,88.18
2018-07-19T07:01:01.674Z,88.33
2018-07-19T07:02:01.683Z,88.09
2018-07-19T07:03:01.692Z,88.33
2018-07-19T07:04:01.711Z,87.95
2018-07-19T07:05:01.729Z,87.46
2018-07-19T07:06:01.745Z,88.33
2018-07-19T07:07:01.766Z,88.33
2018-07-19T07:08:01.779Z,88.24
2018-07-19T07:09:01.899Z,88.33
2018-07-19T07:10:01.817Z,87.46
2018-07-19T07:11:01.834Z,87.56
2018-07-19T07:12:01.849Z,88.33
2018-07-19T07:13:01.871Z,88.33
2018-07-19T07:14:01.890Z,88.38
2018-07-19T07:15:01.958Z,87.51
2018-07-19T07:16:01.919Z,88.18
2018-07-19T07:17:01.938Z,88.09
2018-07-19T07:18:01.953Z,87.46
2018-07-19T07:19:01.979Z,87.21
2018-07-19T07:20:01.987Z,87.07
2018-07-19T07:21:02.003Z,86.98
2018-07-19T07:22:02.036Z,87.46
2018-07-19T07:23:02.041Z,87.46
2018-07-19T07:24:02.052Z,87.60
2018-07-19T07:25:02.077Z,87.90
2018-07-19T07:26:02.088Z,88.28
2018-07-19T07:27:02.113Z,88.18
2018-07-19T07:28:02.127Z,88.09
2018-07-19T07:29:02.189Z,87.80
2018-07-19T07:30:02.172Z,88.28
2018-07-19T07:31:02.204Z,88.28
2018-07-19T07:32:02.200Z,87.74
2018-07-19T07:33:02.210Z,87.65
2018-07-19T07:34:02.233Z,87.46
2018-07-19T07:35:02.240Z,87.74
2018-07-19T07:36:02.262Z,86.98
2018-07-19T07:37:02.303Z,87.46
2018-07-19T07:38:02.294Z,87.46
2018-07-19T07:39:02.367Z,87.17
2018-07-19T07:40:02.334Z,87.36
2018-07-19T07:41:02.350Z,87.55
2018-07-19T07:42:02.374Z,87.46
2018-07-19T07:43:02.395Z,87.17
2018-07-19T07:44:02.440Z,86.88
2018-07-19T07:45:02.423Z,87.02
2018-07-19T07:46:02.429Z,86.63
2018-07-19T07:47:02.457Z,86.39
2018-07-19T07:48:02.476Z,86.48
2018-07-19T07:49:02.487Z,86.39
2018-07-19T07:50:02.504Z,86.63
2018-07-19T07:51:02.521Z,86.63
2018-07-19T07:52:02.544Z,86.54
2018-07-19T07:53:02.570Z,87.06
2018-07-19T07:54:02.573Z,86.77
2018-07-19T07:55:02.599Z,86.82
2018-07-19T07:56:02.608Z,85.56
2018-07-19T07:57:02.636Z,85.41
2018-07-19T07:58:02.653Z,84.83
2018-07-19T07:59:02.669Z,85.16
2018-07-19T08:00:02.684Z,84.88
2018-07-19T08:01:02.700Z,84.54
2018-07-19T08:02:02.717Z,85.46
2018-07-19T08:03:02.739Z,86.72
2018-07-19T08:04:02.749Z,85.85
2018-07-19T08:05:02.770Z,86.66
2018-07-19T08:06:02.791Z,85.66
2018-07-19T08:07:02.811Z,85.99
2018-07-19T08:08:02.827Z,85.56
2018-07-19T08:09:02.892Z,85.22
2018-07-19T08:10:02.858Z,84.68
2018-07-19T08:11:02.883Z,85.11
2018-07-19T08:12:02.900Z,84.14
2018-07-19T08:13:02.923Z,84.05
2018-07-19T08:14:02.932Z,84.05
2018-07-19T08:15:02.960Z,84.14
2018-07-19T08:16:02.982Z,83.66
2018-07-19T08:17:02.995Z,84.05
2018-07-19T08:18:03.004Z,84.24
2018-07-19T08:19:03.025Z,84.97
2018-07-19T08:20:03.044Z,84.68
2018-07-19T08:21:03.066Z,84.68
2018-07-19T08:22:03.081Z,84.43
2018-07-19T08:23:03.107Z,83.51
2018-07-19T08:24:03.121Z,83.47
2018-07-19T08:25:03.146Z,83.95
2018-07-19T08:26:03.157Z,84.33
2018-07-19T08:27:03.181Z,83.66
2018-07-19T08:28:03.188Z,83.85
2018-07-19T08:29:03.274Z,84.14
2018-07-19T08:30:03.240Z,83.72
2018-07-19T08:31:03.245Z,83.95
2018-07-19T08:32:03.269Z,84.20
2018-07-19T08:33:03.290Z,84.00
2018-07-19T08:34:03.315Z,84.68
2018-07-19T08:35:03.326Z,84.68
2018-07-19T08:36:03.408Z,85.01
2018-07-19T08:37:03.363Z,84.14
2018-07-19T08:38:03.381Z,84.05
2018-07-19T08:39:03.403Z,83.12
2018-07-19T08:40:03.416Z,83.06
2018-07-19T08:41:03.446Z,81.75
2018-07-19T08:42:03.464Z,81.21
2018-07-19T08:43:03.477Z,79.50
2018-07-19T08:44:03.531Z,79.22
2018-07-19T08:45:03.515Z,79.74
2018-07-19T08:46:03.530Z,79.55
2018-07-19T08:47:03.547Z,78.92
2018-07-19T08:48:03.571Z,79.80
2018-07-19T08:49:03.594Z,80.34
2018-07-19T08:50:03.652Z,81.07
2018-07-19T08:51:03.630Z,81.75
2018-07-19T08:52:03.648Z,82.23
2018-07-19T08:53:03.670Z,81.95
2018-07-19T08:54:03.689Z,83.06
2018-07-19T08:55:03.738Z,83.41
2018-07-19T08:56:03.752Z,82.93
2018-07-19T08:57:03.744Z,83.61
2018-07-19T08:58:03.771Z,83.31
2018-07-19T08:59:03.788Z,83.95
2018-07-19T09:00:03.803Z,84.28
2018-07-19T09:01:03.828Z,82.58
2018-07-19T09:02:03.852Z,80.59
2018-07-19T09:03:03.867Z,80.34
2018-07-19T09:04:03.875Z,80.63
2018-07-19T09:05:03.907Z,78.54
2018-07-19T09:06:03.923Z,79.57
2018-07-19T09:07:03.990Z,79.62
2018-07-19T09:08:03.957Z,80.46
2018-07-19T09:09:03.980Z,81.67
2018-07-19T09:10:04.004Z,81.96
2018-07-19T09:11:04.020Z,81.57
2018-07-19T09:12:04.036Z,81.82
2018-07-19T09:13:04.111Z,83.27
2018-07-19T09:14:04.118Z,83.18
2018-07-19T09:15:04.156Z,83.08
2018-07-19T09:16:04.116Z,82.69
2018-07-19T09:17:04.130Z,84.14
2018-07-19T09:18:04.155Z,84.20
2018-07-19T09:19:04.223Z,84.78
2018-07-19T09:20:04.191Z,84.64
2018-07-19T09:21:04.245Z,84.78
2018-07-19T09:22:04.225Z,84.24
2018-07-19T09:23:04.244Z,84.09
2018-07-19T09:24:04.263Z,83.16
2018-07-19T09:25:04.283Z,81.07
2018-07-19T09:26:04.312Z,79.90
2018-07-19T09:27:04.329Z,78.00
2018-07-19T09:28:04.344Z,78.38
2018-07-19T09:29:04.364Z,76.79
2018-07-19T09:30:04.387Z,77.67
2018-07-19T09:31:04.455Z,78.09
2018-07-19T09:32:04.416Z,76.93
2018-07-19T09:33:04.526Z,77.61
2018-07-19T09:34:04.459Z,77.47
2018-07-19T09:35:04.479Z,78.92
2018-07-19T09:36:04.499Z,78.83
2018-07-19T09:37:04.573Z,77.65
2018-07-19T09:38:04.538Z,76.78
2018-07-19T09:39:04.578Z,77.51
2018-07-19T09:40:04.579Z,78.25
2018-07-19T09:41:04.588Z,79.95
2018-07-19T09:42:04.619Z,80.15
2018-07-19T09:43:04.636Z,80.79
2018-07-19T09:44:04.649Z,80.49
2018-07-19T09:45:04.698Z,80.36
2018-07-19T09:46:04.691Z,80.65
2018-07-19T09:47:04.711Z,80.46
2018-07-19T09:48:04.735Z,80.74
2018-07-19T09:49:04.805Z,80.74
2018-07-19T09:50:04.773Z,80.55
2018-07-19T09:51:04.840Z,80.46
2018-07-19T09:52:04.815Z,80.41
2018-07-19T09:53:04.829Z,80.74
2018-07-19T09:54:04.851Z,80.79
2018-07-19T09:55:04.878Z,80.59
2018-07-19T09:56:04.892Z,79.91
2018-07-19T09:57:04.935Z,77.92
2018-07-19T09:58:04.927Z,77.80
2018-07-19T09:59:04.949Z,76.62
2018-07-19T10:00:04.965Z,73.30
2018-07-19T10:01:05.038Z,72.58
2018-07-19T10:02:05.003Z,73.42
2018-07-19T10:03:05.062Z,74.35
2018-07-19T10:04:05.043Z,74.90
2018-07-19T10:05:05.067Z,76.25
2018-07-19T10:06:05.092Z,75.48
2018-07-19T10:07:05.156Z,76.21
2018-07-19T10:08:05.126Z,77.44
2018-07-19T10:09:05.147Z,76.93
2018-07-19T10:10:05.239Z,76.25
2018-07-19T10:11:05.187Z,77.09
2018-07-19T10:12:05.211Z,76.89
2018-07-19T10:13:05.230Z,76.79
2018-07-19T10:14:05.254Z,77.67
2018-07-19T10:15:05.274Z,76.79
2018-07-19T10:16:05.282Z,74.97
2018-07-19T10:17:05.309Z,73.48
2018-07-19T10:18:05.316Z,74.06
2018-07-19T10:19:05.337Z,74.90
2018-07-19T10:20:05.362Z,76.79
2018-07-19T10:21:05.380Z,77.24
2018-07-19T10:22:05.400Z,77.92
2018-07-19T10:23:05.422Z,77.57
2018-07-19T10:24:05.439Z,75.90
2018-07-19T10:25:05.511Z,73.36
2018-07-19T10:26:05.476Z,72.61
2018-07-19T10:27:05.517Z,71.55
2018-07-19T10:28:05.521Z,71.16
2018-07-19T10:29:05.546Z,71.03
2018-07-19T10:30:05.567Z,69.22
2018-07-19T10:31:05.581Z,69.76
2018-07-19T10:32:05.721Z,69.76
2018-07-19T10:33:05.651Z,70.51
2018-07-19T10:34:05.676Z,71.28
2018-07-19T10:35:05.667Z,71.38
2018-07-19T10:36:05.681Z,72.16
2018-07-19T10:37:05.710Z,73.09
2018-07-19T10:38:05.720Z,73.96
2018-07-19T10:39:05.805Z,74.22
2018-07-19T10:40:05.766Z,75.92
2018-07-19T10:41:05.784Z,76.60
2018-07-19T10:42:05.805Z,75.71
2018-07-19T10:43:06.019Z,74.10
2018-07-19T10:44:05.848Z,74.90
2018-07-19T10:45:05.874Z,75.38
2018-07-19T10:46:05.920Z,75.81
2018-07-19T10:47:05.933Z,72.93
2018-07-19T10:48:05.938Z,73.38
2018-07-19T10:49:05.948Z,74.80
2018-07-19T10:50:05.967Z,74.51
2018-07-19T10:51:05.988Z,74.84
2018-07-19T10:52:06.015Z,73.09
2018-07-19T10:53:06.050Z,72.39
2018-07-19T10:54:06.051Z,70.81
2018-07-19T10:55:06.071Z,66.89
2018-07-19T10:56:06.088Z,65.75
2018-07-19T10:57:06.166Z,64.75
2018-07-19T10:58:06.192Z,66.66
2018-07-19T10:59:06.158Z,67.41
2018-07-19T11:00:06.182Z,69.02
2018-07-19T11:01:06.189Z,68.38
2018-07-19T11:02:06.220Z,69.80
2018-07-19T11:03:06.245Z,70.31
2018-07-19T11:04:06.257Z,71.64
2018-07-19T11:05:06.286Z,71.48
2018-07-19T11:06:06.306Z,69.25
2018-07-19T11:07:06.322Z,67.41
2018-07-19T11:08:06.345Z,63.52
2018-07-19T11:09:06.365Z,62.67
2018-07-19T11:10:06.388Z,62.45
2018-07-19T11:11:06.400Z,62.67
2018-07-19T11:12:06.420Z,60.85
2018-07-19T11:13:06.514Z,59.23
2018-07-19T11:14:06.467Z,58.09
2018-07-19T11:15:06.488Z,57.99
2018-07-19T11:16:06.581Z,57.14
2018-07-19T11:17:06.534Z,56.46
2018-07-19T11:18:06.561Z,56.85
2018-07-19T11:19:06.576Z,56.07
2018-07-19T11:20:06.603Z,55.48
2018-07-19T11:21:06.621Z,55.75
2018-07-19T11:22:06.667Z,57.67
2018-07-19T11:23:06.665Z,56.23
2018-07-19T11:24:06.697Z,55.91
2018-07-19T11:25:06.712Z,56.01
2018-07-19T11:26:06.732Z,57.18
2018-07-19T11:27:06.766Z,56.72
2018-07-19T11:28:06.789Z,58.00
2018-07-19T11:29:06.806Z,60.50
2018-07-19T11:30:06.824Z,58.94
2018-07-19T11:31:06.855Z,57.50
2018-07-19T11:32:06.863Z,57.34
2018-07-19T11:33:06.894Z,55.55
2018-07-19T11:34:06.918Z,55.65
2018-07-19T11:35:06.950Z,55.16
2018-07-19T11:36:06.963Z,54.97
2018-07-19T11:37:06.986Z,54.38
2018-07-19T11:38:07.006Z,55.69
2018-07-19T11:39:07.040Z,57.90
2018-07-19T11:40:07.051Z,59.31
2018-07-19T11:41:07.079Z,61.68
2018-07-19T11:42:07.103Z,62.81
2018-07-19T11:43:07.120Z,62.48
2018-07-19T11:44:07.140Z,60.31
2018-07-19T11:45:07.171Z,58.49
2018-07-19T11:46:07.232Z,60.14
2018-07-19T11:47:07.218Z,59.92
2018-07-19T11:48:07.234Z,61.18
2018-07-19T11:49:07.255Z,61.96
2018-07-19T11:50:07.279Z,58.32
2018-07-19T11:51:07.304Z,56.72
2018-07-19T11:52:07.343Z,55.32
2018-07-19T11:53:07.353Z,53.32
2018-07-19T11:54:07.374Z,52.64
2018-07-19T11:55:07.440Z,51.71
2018-07-19T11:56:07.418Z,49.65
2018-07-19T11:57:07.438Z,49.97
2018-07-19T11:58:07.548Z,50.02
2018-07-19T11:59:07.484Z,49.09
2018-07-19T12:00:07.504Z,51.86
2018-07-19T12:01:07.534Z,54.02
2018-07-19T12:02:07.552Z,55.97
2018-07-19T12:03:07.580Z,57.67
2018-07-19T12:04:07.596Z,55.12
2018-07-19T12:05:07.625Z,55.38
2018-07-19T12:06:07.648Z,54.97
2018-07-19T12:07:07.674Z,55.75
2018-07-19T12:08:07.692Z,56.62
2018-07-19T12:09:07.716Z,54.53
2018-07-19T12:10:07.788Z,52.44
2018-07-19T12:11:07.763Z,51.82
2018-07-19T12:12:07.779Z,53.60
2018-07-19T12:13:07.808Z,54.87
2018-07-19T12:14:07.826Z,55.97
2018-07-19T12:15:07.856Z,55.36
2018-07-19T12:16:07.878Z,55.36
2018-07-19T12:17:07.895Z,55.46
2018-07-19T12:18:07.969Z,55.19
2018-07-19T12:19:07.944Z,54.70
2018-07-19T12:20:07.967Z,55.46
2018-07-19T12:21:07.995Z,54.90
2018-07-19T12:22:08.076Z,53.49
2018-07-19T12:23:08.043Z,52.51
2018-07-19T12:24:08.071Z,51.58
2018-07-19T12:25:08.089Z,54.02
2018-07-19T12:26:08.110Z,54.23
2018-07-19T12:27:08.140Z,56.27
2018-07-19T12:28:08.158Z,55.62
2018-07-19T12:29:08.181Z,55.55
2018-07-19T12:30:08.203Z,55.89
2018-07-19T12:31:08.322Z,55.82
2018-07-19T12:32:08.248Z,55.68
2018-07-19T12:33:08.278Z,53.85
2018-07-19T12:34:08.302Z,53.95
2018-07-19T12:35:08.325Z,53.95
2018-07-19T12:36:08.345Z,54.77
2018-07-19T12:37:08.371Z,57.51
2018-07-19T12:38:08.397Z,59.95
2018-07-19T12:39:08.418Z,59.75
2018-07-19T12:40:08.441Z,56.50
2018-07-19T12:41:08.461Z,55.12
2018-07-19T12:42:08.488Z,53.36
2018-07-19T12:43:08.513Z,52.54
2018-07-19T12:44:08.533Z,50.32
2018-07-19T12:45:08.557Z,50.75
2018-07-19T12:46:08.578Z,52.56
2018-07-19T12:47:08.603Z,54.58
2018-07-19T12:48:08.623Z,53.99
2018-07-19T12:49:08.705Z,54.19
2018-07-19T12:50:08.673Z,54.09
2018-07-19T12:51:08.697Z,52.95
2018-07-19T12:52:08.759Z,52.87
2018-07-19T12:53:08.745Z,52.80
2018-07-19T12:54:08.779Z,51.27